Time;durP1;ratioP1;P1;durP2;ratioP2;P2;SDS_P1;SDS_P2;PMS_P1;PMS_P2;Temp;Humidity;BMP_temperature;BMP_pressure;BME280_temperature;BME280_humidity;BME280_pressure;Samples;Min_cycle;Max_cycle;Signal;HPM_P1;HPM_P2
2021/07/28 00:02:04;;;;;;;31.33;20.90;;;;;;;;;;4987693;28;20204;-75
2021/07/28 00:04:33;;;;;;;33.05;21.73;;;;;;;;;;4987706;28;20172;-74
2021/07/28 00:06:58;;;;;;;35.53;22.27;;;;;;;;;;4992234;28;20187;-74
2021/07/28 00:09:23;;;;;;;37.37;21.50;;;;;;;;;;4973930;28;20188;-74
2021/07/28 00:11:49;;;;;;;39.72;24.33;;;;;;;;;;4992375;28;20531;-74
2021/07/28 00:14:14;;;;;;;33.13;21.15;;;;;;;;;;4991565;28;20179;-75
2021/07/28 00:16:39;;;;;;;35.83;21.90;;;;;;;;;;4991323;28;20226;-73
2021/07/28 00:19:09;;;;;;;35.42;21.02;;;;;;;;;;4992129;28;20278;-74
2021/07/28 00:24:18;;;;;;;39.55;20.45;;;;;;;;;;4986643;28;20183;-73
2021/07/28 00:26:43;;;;;;;37.20;22.30;;;;;;;;;;4999343;28;20171;-74
2021/07/28 00:29:09;;;;;;;41.40;22.80;;;;;;;;;;4982059;28;20882;-74
2021/07/28 00:31:34;;;;;;;38.20;22.40;;;;;;;;;;4991746;28;20190;-74
2021/07/28 00:33:59;;;;;;;38.72;22.98;;;;;;;;;;4993997;28;20176;-75
2021/07/28 00:36:24;;;;;;;35.85;22.88;;;;;;;;;;4988320;28;20566;-76
2021/07/28 00:38:49;;;;;;;34.50;21.38;;;;;;;;;;4999497;28;20226;-75
2021/07/28 00:41:15;;;;;;;40.00;23.00;;;;;;;;;;4997251;28;20198;-75
2021/07/28 00:43:40;;;;;;;37.95;23.58;;;;;;;;;;4984929;28;20438;-73
2021/07/28 00:46:06;;;;;;;36.90;23.00;;;;;;;;;;4990706;28;20180;-75
2021/07/28 00:48:31;;;;;;;37.35;23.02;;;;;;;;;;4993375;28;20195;-75
2021/07/28 00:50:56;;;;;;;43.28;25.30;;;;;;;;;;4991559;28;20562;-75
2021/07/28 00:53:22;;;;;;;33.40;22.23;;;;;;;;;;4991151;28;20187;-75
2021/07/28 00:55:48;;;;;;;40.67;23.02;;;;;;;;;;4992382;28;20183;-74
2021/07/28 00:58:13;;;;;;;35.90;21.58;;;;;;;;;;4991909;28;20676;-74
2021/07/28 01:00:39;;;;;;;32.00;21.88;;;;;;;;;;4991395;28;20261;-73
2021/07/28 01:03:04;;;;;;;38.05;22.80;;;;;;;;;;4991499;28;20254;-74
2021/07/28 01:05:30;;;;;;;38.08;22.02;;;;;;;;;;4991310;28;20183;-75
2021/07/28 01:07:55;;;;;;;38.55;22.35;;;;;;;;;;4996492;28;20226;-73
2021/07/28 01:10:20;;;;;;;37.20;21.65;;;;;;;;;;4990297;28;20265;-74
2021/07/28 01:12:51;;;;;;;32.58;20.50;;;;;;;;;;4991649;28;20218;-75
2021/07/28 01:18:03;;;;;;;34.15;21.83;;;;;;;;;;4993843;28;20277;-74
2021/07/28 01:20:37;;;;;;;33.28;20.25;;;;;;;;;;4991691;28;20204;-75
2021/07/28 01:23:04;;;;;;;35.38;22.02;;;;;;;;;;4990897;28;20714;-75
2021/07/28 01:25:31;;;;;;;30.77;20.13;;;;;;;;;;4991122;28;20249;-74
2021/07/28 01:27:57;;;;;;;32.58;19.73;;;;;;;;;;5002711;23;20205;-73
2021/07/28 01:30:22;;;;;;;36.35;21.27;;;;;;;;;;4994194;28;20183;-73
2021/07/28 01:32:48;;;;;;;37.03;20.33;;;;;;;;;;5001025;28;20187;-73
2021/07/28 01:35:14;;;;;;;39.67;21.73;;;;;;;;;;4998212;28;20253;-72
2021/07/28 01:37:40;;;;;;;32.75;20.50;;;;;;;;;;4995121;28;20620;-73
2021/07/28 01:40:05;;;;;;;36.70;21.00;;;;;;;;;;4985795;28;20191;-73
2021/07/28 01:42:38;;;;;;;32.47;19.92;;;;;;;;;;4986177;28;20715;-74
2021/07/28 01:45:03;;;;;;;42.53;22.75;;;;;;;;;;4987126;28;20179;-73
2021/07/28 01:47:28;;;;;;;33.72;21.05;;;;;;;;;;4977589;28;20181;-73
2021/07/28 01:49:53;;;;;;;39.45;23.58;;;;;;;;;;4987987;28;20194;-73
2021/07/28 01:52:18;;;;;;;42.03;23.33;;;;;;;;;;4987275;28;20188;-73
2021/07/28 01:54:43;;;;;;;38.33;22.03;;;;;;;;;;4988758;28;20440;-73
2021/07/28 01:57:09;;;;;;;35.60;21.05;;;;;;;;;;4985883;28;20438;-73
2021/07/28 01:59:40;;;;;;;42.50;23.03;;;;;;;;;;4982629;28;20278;-73
2021/07/28 02:02:05;;;;;;;37.92;22.08;;;;;;;;;;4985823;28;20912;-73
2021/07/28 02:04:30;;;;;;;37.83;22.40;;;;;;;;;;4985889;28;20275;-73
2021/07/28 02:06:55;;;;;;;40.60;23.03;;;;;;;;;;4987863;28;20183;-73
2021/07/28 02:09:21;;;;;;;38.37;23.33;;;;;;;;;;4983933;28;20480;-73
2021/07/28 02:11:46;;;;;;;38.27;22.20;;;;;;;;;;4989447;28;20483;-72
2021/07/28 02:14:11;;;;;;;39.50;23.35;;;;;;;;;;4987226;28;20519;-72
2021/07/28 02:16:36;;;;;;;37.67;22.00;;;;;;;;;;4988602;28;20246;-73
2021/07/28 02:19:01;;;;;;;36.37;21.93;;;;;;;;;;4988279;28;20461;-72
2021/07/28 02:21:27;;;;;;;43.97;21.88;;;;;;;;;;4989821;28;20486;-73
2021/07/28 02:23:52;;;;;;;37.53;22.67;;;;;;;;;;4990343;28;20230;-73
2021/07/28 02:26:17;;;;;;;35.40;21.30;;;;;;;;;;4982752;28;20430;-73
2021/07/28 02:28:42;;;;;;;35.40;19.77;;;;;;;;;;4986155;28;20290;-72
2021/07/28 02:31:07;;;;;;;32.20;21.75;;;;;;;;;;4983115;28;20183;-72
2021/07/28 02:33:33;;;;;;;31.43;19.83;;;;;;;;;;4986861;28;20738;-73
2021/07/28 02:35:58;;;;;;;33.63;20.83;;;;;;;;;;4985155;28;20429;-73
2021/07/28 02:38:23;;;;;;;34.50;21.35;;;;;;;;;;4992393;28;20207;-73
2021/07/28 02:40:48;;;;;;;32.73;19.47;;;;;;;;;;4984965;28;20187;-73
2021/07/28 02:43:14;;;;;;;33.80;19.43;;;;;;;;;;4984896;28;20464;-73
2021/07/28 02:45:39;;;;;;;30.45;19.92;;;;;;;;;;4982862;28;20406;-73
2021/07/28 02:48:04;;;;;;;30.33;19.13;;;;;;;;;;4986157;28;21058;-73
2021/07/28 02:50:31;;;;;;;33.42;18.95;;;;;;;;;;4983817;28;20426;-73
2021/07/28 02:52:56;;;;;;;33.78;20.20;;;;;;;;;;4983712;28;20178;-73
2021/07/28 02:55:21;;;;;;;29.23;18.97;;;;;;;;;;4977794;28;20646;-73
2021/07/28 02:57:46;;;;;;;27.65;18.15;;;;;;;;;;4985016;28;20492;-73
2021/07/28 03:00:12;;;;;;;33.87;20.37;;;;;;;;;;4979147;28;20191;-73
2021/07/28 03:02:37;;;;;;;35.22;21.42;;;;;;;;;;4983688;28;20996;-73
2021/07/28 03:05:02;;;;;;;31.27;19.02;;;;;;;;;;4999407;28;20211;-73
2021/07/28 03:07:28;;;;;;;36.90;21.25;;;;;;;;;;5008002;28;20203;-73
2021/07/28 03:09:53;;;;;;;33.50;21.13;;;;;;;;;;4992167;28;20278;-73
2021/07/28 03:12:18;;;;;;;37.37;23.87;;;;;;;;;;4993546;28;20421;-72
2021/07/28 03:14:43;;;;;;;41.58;23.10;;;;;;;;;;4989295;28;20440;-73
2021/07/28 03:17:08;;;;;;;38.80;23.38;;;;;;;;;;4988743;28;20180;-73
2021/07/28 03:19:34;;;;;;;36.75;22.15;;;;;;;;;;4987589;28;20575;-72
2021/07/28 03:21:59;;;;;;;34.60;22.17;;;;;;;;;;4992622;28;20210;-73
2021/07/28 03:24:24;;;;;;;34.33;21.35;;;;;;;;;;4989043;28;20186;-73
2021/07/28 03:26:50;;;;;;;35.50;21.30;;;;;;;;;;4990982;28;20266;-72
2021/07/28 03:29:15;;;;;;;32.90;20.60;;;;;;;;;;5007016;28;20286;-72
2021/07/28 03:31:40;;;;;;;35.73;22.00;;;;;;;;;;4988065;28;20189;-72
2021/07/28 03:34:05;;;;;;;34.58;21.55;;;;;;;;;;4985534;28;20584;-73
2021/07/28 03:36:30;;;;;;;33.40;20.50;;;;;;;;;;4982801;28;20239;-73
2021/07/28 03:38:55;;;;;;;30.50;19.77;;;;;;;;;;4995172;28;20212;-73
2021/07/28 03:41:21;;;;;;;31.17;20.37;;;;;;;;;;4992891;28;20168;-73
2021/07/28 03:43:46;;;;;;;29.47;20.57;;;;;;;;;;4990125;28;20973;-73
2021/07/28 03:46:11;;;;;;;28.38;19.58;;;;;;;;;;4993011;28;20422;-73
2021/07/28 03:48:36;;;;;;;31.00;19.80;;;;;;;;;;4986029;28;20793;-73
2021/07/28 03:51:02;;;;;;;30.90;21.10;;;;;;;;;;4990448;28;20238;-73
2021/07/28 03:53:27;;;;;;;32.47;21.50;;;;;;;;;;4991431;28;20441;-72
2021/07/28 03:55:52;;;;;;;31.45;20.80;;;;;;;;;;4985285;28;20176;-73
2021/07/28 03:58:17;;;;;;;33.75;20.38;;;;;;;;;;4988360;28;20239;-73
2021/07/28 04:00:43;;;;;;;31.48;20.75;;;;;;;;;;4986511;28;20179;-73
2021/07/28 04:03:08;;;;;;;34.60;20.80;;;;;;;;;;4987236;28;20203;-73
2021/07/28 04:05:33;;;;;;;38.95;21.48;;;;;;;;;;4992239;28;20434;-73
2021/07/28 04:07:59;;;;;;;34.53;22.98;;;;;;;;;;4987771;28;20219;-73
2021/07/28 04:10:24;;;;;;;33.08;22.08;;;;;;;;;;4984983;28;20551;-73
2021/07/28 04:12:49;;;;;;;36.30;22.67;;;;;;;;;;4992947;28;20302;-73
2021/07/28 04:15:15;;;;;;;32.38;22.85;;;;;;;;;;4985717;28;20202;-73
2021/07/28 04:17:40;;;;;;;35.10;21.77;;;;;;;;;;4983887;28;20241;-73
2021/07/28 04:20:05;;;;;;;33.60;21.83;;;;;;;;;;4989452;28;20195;-72
2021/07/28 04:22:31;;;;;;;34.58;22.48;;;;;;;;;;4991069;28;20530;-73
2021/07/28 04:24:56;;;;;;;32.37;22.23;;;;;;;;;;4992321;28;20183;-73
2021/07/28 04:27:21;;;;;;;36.28;23.58;;;;;;;;;;4984859;28;20422;-73
2021/07/28 04:29:46;;;;;;;35.72;24.23;;;;;;;;;;4977214;28;20320;-73
2021/07/28 04:32:12;;;;;;;32.15;21.95;;;;;;;;;;4984990;28;20192;-73
2021/07/28 04:34:37;;;;;;;34.92;23.73;;;;;;;;;;4984886;28;20278;-72
2021/07/28 04:37:02;;;;;;;33.67;22.30;;;;;;;;;;4986466;28;20719;-73
2021/07/28 04:39:27;;;;;;;34.10;22.75;;;;;;;;;;4990457;28;20537;-74
2021/07/28 04:41:53;;;;;;;42.42;24.30;;;;;;;;;;4991295;28;20238;-73
2021/07/28 04:44:18;;;;;;;31.13;21.50;;;;;;;;;;4990555;28;20187;-73
2021/07/28 04:46:43;;;;;;;35.33;22.70;;;;;;;;;;4984972;28;20805;-73
2021/07/28 04:49:08;;;;;;;33.53;22.87;;;;;;;;;;4982867;28;20204;-73
2021/07/28 04:51:34;;;;;;;34.60;22.40;;;;;;;;;;4992122;28;20890;-73
2021/07/28 04:53:59;;;;;;;31.50;22.50;;;;;;;;;;4986103;28;20238;-73
2021/07/28 04:56:24;;;;;;;40.95;24.45;;;;;;;;;;4985072;28;20184;-73
2021/07/28 04:58:49;;;;;;;33.47;22.17;;;;;;;;;;4986006;28;20581;-72
2021/07/28 05:01:14;;;;;;;29.63;21.07;;;;;;;;;;4985431;28;20429;-72
2021/07/28 05:03:39;;;;;;;31.55;22.75;;;;;;;;;;4988170;28;20968;-73
2021/07/28 05:06:05;;;;;;;32.20;22.93;;;;;;;;;;4992154;28;20274;-73
2021/07/28 05:08:30;;;;;;;32.05;22.75;;;;;;;;;;4986512;28;20442;-72
2021/07/28 05:10:55;;;;;;;29.92;22.33;;;;;;;;;;4987058;28;20178;-72
2021/07/28 05:13:20;;;;;;;29.30;21.23;;;;;;;;;;4984477;28;20666;-73
2021/07/28 05:15:47;;;;;;;28.10;21.55;;;;;;;;;;4984527;28;20505;-73
2021/07/28 05:18:13;;;;;;;29.05;22.70;;;;;;;;;;4983466;28;20210;-73
2021/07/28 05:20:38;;;;;;;34.87;21.90;;;;;;;;;;4983079;28;20187;-73
2021/07/28 05:23:03;;;;;;;31.13;22.85;;;;;;;;;;4987268;28;21040;-73
2021/07/28 05:25:28;;;;;;;27.60;22.17;;;;;;;;;;4981981;28;20259;-73
2021/07/28 05:27:54;;;;;;;34.53;22.83;;;;;;;;;;5003835;28;20179;-73
2021/07/28 05:30:19;;;;;;;27.50;21.15;;;;;;;;;;4982488;28;20192;-73
2021/07/28 05:32:44;;;;;;;29.08;23.52;;;;;;;;;;4983123;28;20242;-73
2021/07/28 05:35:10;;;;;;;29.03;22.43;;;;;;;;;;4985245;28;20222;-73
2021/07/28 05:37:35;;;;;;;30.50;22.40;;;;;;;;;;4981454;28;21362;-73
2021/07/28 05:40:00;;;;;;;30.50;22.00;;;;;;;;;;4984839;28;20227;-73
2021/07/28 05:42:25;;;;;;;25.20;20.73;;;;;;;;;;4991092;28;20225;-73
2021/07/28 05:44:50;;;;;;;22.77;19.52;;;;;;;;;;4992223;28;20532;-73
2021/07/28 05:47:15;;;;;;;24.57;19.67;;;;;;;;;;4992703;28;20195;-73
2021/07/28 05:49:41;;;;;;;20.70;17.77;;;;;;;;;;4991122;28;20942;-73
2021/07/28 05:52:06;;;;;;;24.23;18.42;;;;;;;;;;4992045;28;20180;-73
2021/07/28 05:54:31;;;;;;;21.17;18.27;;;;;;;;;;4992511;28;20270;-73
2021/07/28 05:56:56;;;;;;;22.00;17.70;;;;;;;;;;4993622;28;20185;-73
2021/07/28 05:59:22;;;;;;;23.60;17.63;;;;;;;;;;4992417;28;20441;-73
2021/07/28 06:01:47;;;;;;;18.95;16.88;;;;;;;;;;4989247;28;20922;-72
2021/07/28 06:04:13;;;;;;;22.55;16.35;;;;;;;;;;4985484;28;20230;-73
2021/07/28 06:06:38;;;;;;;20.48;15.50;;;;;;;;;;4986528;28;20544;-73
2021/07/28 06:09:03;;;;;;;20.33;15.50;;;;;;;;;;4987721;28;20206;-74
2021/07/28 06:11:28;;;;;;;20.27;14.83;;;;;;;;;;4994016;28;20946;-74
2021/07/28 06:13:53;;;;;;;16.15;14.48;;;;;;;;;;5007412;28;20420;-74
2021/07/28 06:16:19;;;;;;;16.23;13.57;;;;;;;;;;4994292;28;20194;-74
2021/07/28 06:18:44;;;;;;;15.70;13.70;;;;;;;;;;4992015;28;20442;-73
2021/07/28 06:21:09;;;;;;;16.33;12.88;;;;;;;;;;4992166;28;20253;-73
2021/07/28 06:23:34;;;;;;;17.33;13.53;;;;;;;;;;4991717;28;20218;-74
2021/07/28 06:25:59;;;;;;;16.13;12.45;;;;;;;;;;4995041;28;20530;-73
2021/07/28 06:28:28;;;;;;;15.65;14.05;;;;;;;;;;4990333;28;20226;-74
2021/07/28 06:30:53;;;;;;;14.45;12.60;;;;;;;;;;4985233;28;20171;-74
2021/07/28 06:33:19;;;;;;;18.27;13.23;;;;;;;;;;4989388;28;20175;-73
2021/07/28 06:35:45;;;;;;;16.08;13.50;;;;;;;;;;4995746;28;20615;-73
2021/07/28 06:38:10;;;;;;;14.98;13.45;;;;;;;;;;5011171;28;20202;-73
2021/07/28 06:40:35;;;;;;;15.10;13.18;;;;;;;;;;4998326;28;20178;-74
2021/07/28 06:43:00;;;;;;;15.27;13.38;;;;;;;;;;4996249;28;20199;-74
2021/07/28 06:45:25;;;;;;;17.80;13.97;;;;;;;;;;4997839;28;20179;-74
2021/07/28 06:47:51;;;;;;;16.45;14.05;;;;;;;;;;4994966;28;20939;-74
2021/07/28 06:50:16;;;;;;;16.90;14.05;;;;;;;;;;4992315;28;20187;-74
2021/07/28 06:52:41;;;;;;;17.70;14.68;;;;;;;;;;4991746;28;20192;-75
2021/07/28 06:55:07;;;;;;;15.55;13.70;;;;;;;;;;4994676;28;20198;-74
2021/07/28 06:57:32;;;;;;;16.48;13.30;;;;;;;;;;5001898;28;20187;-75
2021/07/28 06:59:57;;;;;;;15.15;13.27;;;;;;;;;;4990018;28;20199;-74
2021/07/28 07:02:22;;;;;;;15.30;11.67;;;;;;;;;;4997036;28;20273;-74
2021/07/28 07:04:48;;;;;;;12.98;10.65;;;;;;;;;;4998799;28;20821;-74
2021/07/28 07:07:13;;;;;;;12.82;11.52;;;;;;;;;;4992105;28;20263;-74
2021/07/28 07:09:38;;;;;;;14.60;11.00;;;;;;;;;;4989159;28;20205;-74
2021/07/28 07:12:03;;;;;;;14.40;11.43;;;;;;;;;;4990285;28;20436;-73
2021/07/28 07:14:29;;;;;;;11.82;10.63;;;;;;;;;;4992700;28;20234;-74
2021/07/28 07:16:55;;;;;;;13.38;9.80;;;;;;;;;;4992245;28;20187;-73
2021/07/28 07:19:20;;;;;;;10.65;9.60;;;;;;;;;;4974236;28;20292;-74
2021/07/28 07:21:45;;;;;;;10.30;9.20;;;;;;;;;;5000312;28;20222;-74
2021/07/28 07:24:10;;;;;;;9.97;8.70;;;;;;;;;;4994447;28;20417;-74
2021/07/28 07:26:35;;;;;;;12.57;8.17;;;;;;;;;;4993628;28;20397;-74
2021/07/28 07:29:01;;;;;;;9.33;8.13;;;;;;;;;;4994722;23;20505;-71
2021/07/28 07:31:26;;;;;;;9.45;8.23;;;;;;;;;;4970596;28;20428;-71
2021/07/28 07:33:51;;;;;;;13.00;8.60;;;;;;;;;;4972307;28;20601;-71
2021/07/28 07:36:19;;;;;;;12.40;8.50;;;;;;;;;;4974106;28;20435;-71
2021/07/28 07:38:45;;;;;;;10.02;7.55;;;;;;;;;;4972035;28;20708;-71
2021/07/28 07:41:10;;;;;;;8.48;7.38;;;;;;;;;;4970389;28;20192;-72
2021/07/28 07:43:35;;;;;;;9.27;6.90;;;;;;;;;;4968157;28;20215;-71
2021/07/28 07:46:01;;;;;;;8.38;6.63;;;;;;;;;;4983330;28;20625;-70
2021/07/28 07:48:26;;;;;;;9.68;7.57;;;;;;;;;;4969860;28;20678;-72
2021/07/28 07:50:51;;;;;;;12.32;7.45;;;;;;;;;;4972511;28;20203;-72
2021/07/28 07:53:17;;;;;;;7.72;7.00;;;;;;;;;;4974265;28;20276;-71
2021/07/28 07:55:42;;;;;;;11.00;7.45;;;;;;;;;;4971549;28;20855;-72
2021/07/28 07:58:07;;;;;;;9.45;7.15;;;;;;;;;;4967957;28;20196;-72
2021/07/28 08:00:33;;;;;;;9.50;6.50;;;;;;;;;;4969567;28;20307;-72
2021/07/28 08:02:58;;;;;;;7.40;5.40;;;;;;;;;;4966286;28;20471;-71
2021/07/28 08:05:23;;;;;;;11.07;6.03;;;;;;;;;;4967867;28;20542;-72
2021/07/28 08:07:48;;;;;;;7.97;5.32;;;;;;;;;;4973903;28;20479;-72
2021/07/28 08:10:14;;;;;;;8.20;4.57;;;;;;;;;;4969898;28;20200;-71
2021/07/28 08:12:39;;;;;;;9.10;5.40;;;;;;;;;;4973293;28;20440;-71
2021/07/28 08:15:04;;;;;;;7.38;4.88;;;;;;;;;;4969154;28;20205;-71
2021/07/28 08:17:30;;;;;;;6.65;4.70;;;;;;;;;;4961428;28;20252;-71
2021/07/28 08:19:56;;;;;;;6.97;4.50;;;;;;;;;;4968650;28;20200;-71
2021/07/28 08:22:21;;;;;;;9.77;5.68;;;;;;;;;;4972225;28;20828;-70
2021/07/28 08:24:46;;;;;;;6.57;4.80;;;;;;;;;;4965529;28;20177;-71
2021/07/28 08:27:11;;;;;;;4.77;3.87;;;;;;;;;;4971882;28;20426;-71
2021/07/28 08:29:36;;;;;;;6.65;4.28;;;;;;;;;;4973073;28;20556;-71
2021/07/28 08:32:02;;;;;;;5.47;4.07;;;;;;;;;;4979528;28;20218;-71
2021/07/28 08:34:27;;;;;;;8.88;3.95;;;;;;;;;;4973892;28;20997;-71
2021/07/28 08:36:52;;;;;;;6.83;4.50;;;;;;;;;;4977845;28;20199;-71
2021/07/28 08:39:18;;;;;;;8.13;4.13;;;;;;;;;;4969108;28;21867;-71
2021/07/28 08:41:46;;;;;;;5.40;4.18;;;;;;;;;;4968854;28;20568;-71
2021/07/28 08:44:13;;;;;;;9.10;4.70;;;;;;;;;;4976264;28;20180;-70
2021/07/28 08:46:38;;;;;;;6.40;3.47;;;;;;;;;;4976167;28;20184;-71
2021/07/28 08:49:03;;;;;;;9.00;4.97;;;;;;;;;;4979820;28;20325;-71
2021/07/28 08:51:28;;;;;;;7.30;4.38;;;;;;;;;;4972754;28;20782;-71
2021/07/28 08:53:53;;;;;;;7.33;4.30;;;;;;;;;;4965178;28;20204;-70
2021/07/28 08:56:21;;;;;;;4.20;3.80;;;;;;;;;;4976831;28;20426;-70
2021/07/28 08:58:46;;;;;;;5.20;4.55;;;;;;;;;;4977871;28;20227;-71
2021/07/28 09:01:11;;;;;;;5.72;5.25;;;;;;;;;;4961507;28;20761;-70
2021/07/28 09:03:39;;;;;;;6.50;4.47;;;;;;;;;;4967312;28;20204;-71
2021/07/28 09:06:04;;;;;;;5.65;4.82;;;;;;;;;;4975577;28;20179;-70
2021/07/28 09:08:30;;;;;;;7.50;4.68;;;;;;;;;;4969077;28;20279;-71
2021/07/28 09:10:57;;;;;;;6.93;4.60;;;;;;;;;;4967955;28;20180;-71
2021/07/28 09:13:26;;;;;;;8.07;5.13;;;;;;;;;;4967404;28;20212;-73
2021/07/28 09:15:53;;;;;;;5.78;4.88;;;;;;;;;;4970500;28;20183;-70
2021/07/28 09:18:33;;;;;;;5.50;4.63;;;;;;;;;;4968224;28;20212;-71
2021/07/28 09:21:00;;;;;;;6.53;5.00;;;;;;;;;;4972518;28;20180;-71
2021/07/28 09:23:32;;;;;;;8.25;4.82;;;;;;;;;;4967544;28;20580;-71
2021/07/28 09:25:58;;;;;;;11.68;4.55;;;;;;;;;;4956224;28;20192;-71
2021/07/28 09:28:24;;;;;;;6.07;4.80;;;;;;;;;;4961091;28;20200;-72
2021/07/28 09:30:49;;;;;;;6.83;5.07;;;;;;;;;;4960607;28;20204;-71
2021/07/28 09:33:16;;;;;;;8.15;4.97;;;;;;;;;;4964062;28;20927;-72
2021/07/28 09:35:51;;;;;;;9.60;4.78;;;;;;;;;;4958060;28;20192;-71
2021/07/28 09:38:32;;;;;;;6.03;5.43;;;;;;;;;;4960123;28;20796;-71
2021/07/28 09:41:11;;;;;;;8.32;5.15;;;;;;;;;;4956383;28;20218;-71
2021/07/28 09:43:56;;;;;;;6.45;4.47;;;;;;;;;;4955245;28;20211;-71
2021/07/28 09:46:22;;;;;;;8.15;4.80;;;;;;;;;;4958514;28;20180;-72
2021/07/28 09:48:48;;;;;;;5.88;4.07;;;;;;;;;;4958967;28;20214;-72
2021/07/28 09:51:33;;;;;;;6.20;4.38;;;;;;;;;;4952836;28;20177;-70
2021/07/28 09:54:03;;;;;;;7.32;4.68;;;;;;;;;;4961363;28;20199;-71
2021/07/28 09:56:38;;;;;;;5.90;4.63;;;;;;;;;;4956403;28;20328;-70
2021/07/28 09:59:04;;;;;;;8.23;4.50;;;;;;;;;;4959119;28;20287;-70
2021/07/28 10:01:31;;;;;;;9.20;5.00;;;;;;;;;;4964674;28;20259;-70
2021/07/28 10:03:57;;;;;;;6.00;4.90;;;;;;;;;;4955769;28;20220;-70
2021/07/28 10:06:26;;;;;;;5.07;4.30;;;;;;;;;;4958390;28;20194;-68
2021/07/28 10:08:52;;;;;;;8.20;4.93;;;;;;;;;;4962874;28;20207;-71
2021/07/28 10:11:17;;;;;;;7.15;4.93;;;;;;;;;;4959643;28;20180;-71
2021/07/28 10:13:43;;;;;;;6.47;3.95;;;;;;;;;;4953946;28;20232;-68
2021/07/28 10:16:08;;;;;;;10.88;4.68;;;;;;;;;;4956065;28;20220;-69
2021/07/28 10:18:34;;;;;;;11.57;4.25;;;;;;;;;;4957626;28;20535;-69
2021/07/28 10:20:59;;;;;;;6.18;3.60;;;;;;;;;;4960527;28;20180;-70
2021/07/28 10:23:25;;;;;;;8.80;3.42;;;;;;;;;;4962242;28;20244;-69
2021/07/28 10:25:50;;;;;;;6.97;4.35;;;;;;;;;;4966684;28;20641;-70
2021/07/28 10:28:16;;;;;;;5.57;3.53;;;;;;;;;;4962419;28;20255;-70
2021/07/28 10:30:45;;;;;;;7.95;4.07;;;;;;;;;;4962051;28;20521;-69
2021/07/28 10:33:28;;;;;;;7.78;3.38;;;;;;;;;;4960656;28;20525;-69
2021/07/28 10:35:55;;;;;;;6.18;3.00;;;;;;;;;;4956140;28;20208;-69
2021/07/28 10:38:21;;;;;;;3.77;3.17;;;;;;;;;;4958259;28;20214;-72
2021/07/28 10:40:51;;;;;;;7.28;4.13;;;;;;;;;;4954762;28;20436;-69
2021/07/28 10:43:16;;;;;;;4.28;3.35;;;;;;;;;;4956625;28;20212;-69
2021/07/28 10:45:56;;;;;;;8.50;3.83;;;;;;;;;;4955922;28;21021;-69
2021/07/28 10:48:36;;;;;;;6.22;3.88;;;;;;;;;;4966353;28;20484;-69
2021/07/28 10:51:01;;;;;;;6.32;3.70;;;;;;;;;;4959038;28;20184;-69
2021/07/28 10:53:45;;;;;;;7.57;3.27;;;;;;;;;;4955773;28;20176;-70
2021/07/28 10:56:11;;;;;;;8.60;3.25;;;;;;;;;;4958325;28;20965;-70
2021/07/28 10:58:36;;;;;;;3.88;3.47;;;;;;;;;;4959616;28;20210;-69
2021/07/28 11:01:01;;;;;;;7.00;3.40;;;;;;;;;;4955241;28;20639;-70
2021/07/28 11:03:30;;;;;;;7.63;3.50;;;;;;;;;;4960716;28;20561;-70
2021/07/28 11:06:12;;;;;;;5.05;3.05;;;;;;;;;;4955872;28;20195;-71
2021/07/28 11:08:37;;;;;;;4.70;3.30;;;;;;;;;;4954897;28;20192;-69
2021/07/28 11:11:02;;;;;;;4.53;3.20;;;;;;;;;;4958745;28;20187;-69
2021/07/28 11:13:28;;;;;;;5.10;2.90;;;;;;;;;;4956111;28;20185;-70
2021/07/28 11:15:56;;;;;;;5.72;2.95;;;;;;;;;;4955297;28;20465;-69
2021/07/28 11:18:31;;;;;;;9.00;3.85;;;;;;;;;;4958808;28;20204;-69
2021/07/28 11:21:04;;;;;;;6.72;2.95;;;;;;;;;;4957725;28;20317;-68
2021/07/28 11:23:29;;;;;;;5.85;2.53;;;;;;;;;;4959188;28;20196;-69
2021/07/28 11:25:55;;;;;;;6.23;2.83;;;;;;;;;;4959086;28;20716;-70
2021/07/28 11:28:23;;;;;;;9.57;2.83;;;;;;;;;;4962880;28;20295;-69
2021/07/28 11:30:54;;;;;;;7.65;3.13;;;;;;;;;;4964811;28;20696;-69
2021/07/28 11:33:19;;;;;;;4.05;3.10;;;;;;;;;;4962256;28;20181;-69
2021/07/28 11:35:46;;;;;;;7.30;3.10;;;;;;;;;;4978398;28;20191;-69
2021/07/28 11:38:17;;;;;;;5.47;3.40;;;;;;;;;;4977483;28;20470;-69
2021/07/28 11:40:43;;;;;;;5.75;3.00;;;;;;;;;;4960734;28;20199;-70
2021/07/28 11:43:20;;;;;;;5.13;3.13;;;;;;;;;;4960551;28;20212;-68
2021/07/28 11:45:46;;;;;;;4.85;2.80;;;;;;;;;;4961250;28;20666;-69
2021/07/28 11:48:29;;;;;;;5.33;3.10;;;;;;;;;;4961838;28;20286;-68
2021/07/28 11:50:54;;;;;;;3.97;2.75;;;;;;;;;;4959824;28;20430;-68
2021/07/28 11:53:26;;;;;;;5.10;2.57;;;;;;;;;;4960526;28;20180;-68
2021/07/28 11:55:52;;;;;;;5.10;2.55;;;;;;;;;;4959337;28;20790;-69
2021/07/28 11:58:17;;;;;;;4.38;2.70;;;;;;;;;;4963626;28;20235;-69
2021/07/28 12:00:46;;;;;;;4.90;2.55;;;;;;;;;;4962709;28;20203;-70
2021/07/28 12:03:28;;;;;;;4.82;2.65;;;;;;;;;;4959143;28;20236;-69
2021/07/28 12:06:00;;;;;;;9.93;3.35;;;;;;;;;;4962507;28;20814;-69
2021/07/28 12:08:43;;;;;;;3.97;3.00;;;;;;;;;;4981130;28;20720;-69
2021/07/28 12:11:11;;;;;;;8.02;3.03;;;;;;;;;;4963785;28;20196;-71
2021/07/28 12:13:40;;;;;;;3.40;2.50;;;;;;;;;;4958522;28;20197;-69
2021/07/28 12:16:06;;;;;;;5.15;2.83;;;;;;;;;;4959203;28;20192;-69
2021/07/28 12:18:57;;;;;;;6.00;2.78;;;;;;;;;;4955559;28;20267;-70
2021/07/28 12:21:23;;;;;;;6.43;2.90;;;;;;;;;;4961387;28;20196;-72
2021/07/28 12:23:49;;;;;;;4.75;2.45;;;;;;;;;;4956084;28;20544;-69
2021/07/28 12:26:15;;;;;;;4.10;2.38;;;;;;;;;;4959305;28;20184;-70
2021/07/28 12:28:50;;;;;;;3.92;2.35;;;;;;;;;;4957684;28;20398;-70
2021/07/28 12:31:27;;;;;;;6.07;2.65;;;;;;;;;;4960107;28;20426;-69
2021/07/28 12:33:53;;;;;;;5.35;2.45;;;;;;;;;;4957258;28;20179;-70
2021/07/28 12:36:25;;;;;;;11.82;3.25;;;;;;;;;;4957589;28;20644;-69
2021/07/28 12:38:51;;;;;;;6.03;3.03;;;;;;;;;;4958042;28;20230;-69
2021/07/28 12:41:17;;;;;;;3.70;3.37;;;;;;;;;;4957799;28;20263;-69
2021/07/28 12:43:43;;;;;;;3.70;2.63;;;;;;;;;;4961314;28;20925;-70
2021/07/28 12:46:09;;;;;;;4.67;2.97;;;;;;;;;;4959295;28;20189;-69
2021/07/28 12:48:35;;;;;;;6.68;2.53;;;;;;;;;;4957331;28;20878;-69
2021/07/28 12:51:01;;;;;;;4.63;2.90;;;;;;;;;;4965869;28;20192;-70
2021/07/28 12:53:28;;;;;;;4.60;3.15;;;;;;;;;;4967743;28;20177;-69
2021/07/28 12:55:53;;;;;;;6.78;3.40;;;;;;;;;;4966011;28;20186;-70
2021/07/28 12:58:18;;;;;;;3.67;3.15;;;;;;;;;;4976862;28;20785;-70
2021/07/28 13:00:43;;;;;;;4.18;2.75;;;;;;;;;;4958437;28;20189;-70
2021/07/28 13:03:12;;;;;;;4.40;3.20;;;;;;;;;;4960237;28;20304;-70
2021/07/28 13:05:40;;;;;;;4.20;3.15;;;;;;;;;;4956958;28;20485;-70
2021/07/28 13:08:10;;;;;;;4.00;3.28;;;;;;;;;;4961687;28;21214;-70
2021/07/28 13:10:36;;;;;;;7.40;2.80;;;;;;;;;;4958050;28;20203;-70
2021/07/28 13:13:01;;;;;;;5.03;3.17;;;;;;;;;;4957723;28;20559;-69
2021/07/28 13:15:27;;;;;;;4.03;2.70;;;;;;;;;;4959263;28;20668;-69
2021/07/28 13:17:52;;;;;;;5.22;2.70;;;;;;;;;;4961219;28;20430;-70
2021/07/28 13:20:18;;;;;;;3.67;3.00;;;;;;;;;;4957945;28;20672;-70
2021/07/28 13:22:43;;;;;;;4.13;2.67;;;;;;;;;;4964630;28;20200;-69
2021/07/28 13:25:09;;;;;;;5.22;2.60;;;;;;;;;;4956382;28;20188;-69
2021/07/28 13:27:35;;;;;;;2.88;2.40;;;;;;;;;;4955919;28;20181;-69
2021/07/28 13:30:00;;;;;;;3.47;2.38;;;;;;;;;;4993771;23;20254;-71
2021/07/28 13:32:25;;;;;;;3.38;2.50;;;;;;;;;;4991735;28;20560;-71
2021/07/28 13:34:51;;;;;;;4.18;2.60;;;;;;;;;;4990026;28;20191;-71
2021/07/28 13:37:16;;;;;;;3.20;2.70;;;;;;;;;;4994118;28;20179;-70
2021/07/28 13:39:41;;;;;;;5.38;2.60;;;;;;;;;;4983148;28;20661;-72
2021/07/28 13:42:07;;;;;;;3.83;2.90;;;;;;;;;;4974245;28;20206;-71
2021/07/28 13:44:32;;;;;;;4.97;3.55;;;;;;;;;;4976424;28;20183;-71
2021/07/28 13:47:02;;;;;;;4.03;3.20;;;;;;;;;;4982102;28;20188;-72
2021/07/28 13:49:27;;;;;;;4.22;3.72;;;;;;;;;;4971891;28;20282;-70
2021/07/28 13:51:52;;;;;;;7.40;3.72;;;;;;;;;;4975547;28;20201;-71
2021/07/28 13:54:17;;;;;;;9.23;4.57;;;;;;;;;;4973855;28;20183;-71
2021/07/28 13:56:43;;;;;;;7.00;4.68;;;;;;;;;;4974661;28;20183;-72
2021/07/28 13:59:09;;;;;;;5.18;4.68;;;;;;;;;;4974068;28;20203;-72
2021/07/28 14:01:35;;;;;;;7.57;4.95;;;;;;;;;;4973968;28;20187;-72
2021/07/28 14:04:00;;;;;;;8.27;5.97;;;;;;;;;;4971762;28;20203;-73
2021/07/28 14:06:25;;;;;;;8.67;6.43;;;;;;;;;;4972800;28;20212;-71
2021/07/28 14:08:50;;;;;;;6.83;6.13;;;;;;;;;;4973802;28;20461;-70
2021/07/28 14:11:15;;;;;;;5.90;5.32;;;;;;;;;;4973349;28;20451;-70
2021/07/28 14:13:40;;;;;;;6.88;6.07;;;;;;;;;;4970078;28;20662;-70
2021/07/28 14:16:06;;;;;;;7.57;4.60;;;;;;;;;;4973647;28;20198;-71
2021/07/28 14:18:31;;;;;;;4.97;4.00;;;;;;;;;;4973344;28;20484;-70
2021/07/28 14:20:57;;;;;;;7.65;4.72;;;;;;;;;;4973117;28;20201;-70
2021/07/28 14:23:22;;;;;;;6.47;4.00;;;;;;;;;;4974898;28;20713;-69
2021/07/28 14:25:47;;;;;;;4.95;3.75;;;;;;;;;;4974176;28;20435;-72
2021/07/28 14:28:13;;;;;;;4.77;3.93;;;;;;;;;;4971691;28;20199;-72
2021/07/28 14:30:38;;;;;;;9.18;4.07;;;;;;;;;;4975533;28;20452;-71